Terminal Aerodrome Forecast
Issued by NWS

Home | Current Version | Previous Version | Text Only | Print | Product List | Glossary On
Versions: 1 2 3 4 5 6 7 8 9 10 11 12 13 14 15 16 17 18 19 20 21 22 23
520
FTUS44 KLZK 280539
TAFHRO
TAF
KHRO 280539Z 2806/2906 14008KT P6SM VCSH SCT050 OVC100
      TEMPO 2807/2811 5SM -SHRA OVC050
     FM281100 14009KT P6SM VCSH BKN025 OVC040 WS020/20040KT
     FM281500 16015G25KT P6SM BKN015 OVC050 PROB30 2815/2818 5SM
      SHRA
     FM281800 19008G15KT P6SM -SHRA VCTS BKN035CB OVC080
     FM290100 15008KT 5SM -RA BR VCTS OVC015CB=

USA.gov is the U.S. government's official web portal to all federal, state and local government web resources and services.